首页
METAR-TAF:

METAR-TAF

机场 :

連科蘭國際機場

連科蘭, 阿塞拜疆

纬度: 38-44-47N, 经度: 048-49-04E, 海拔: 9米

当前天气观测

该预报发布于1小时和2分钟前的01:00 UTC
温度 17°C
湿度 77%
气压 1014 hPa
能见度10公里或以上

METAR: UBBL 310100Z 2105KT 9999 NSC 17/13 Q1014 R33/CLRD// NOSIG RMK MT OP

时间: 06:02 (02:02 UTC)

预报

该预报发布于3小时和1分钟前的23:01 UTC
预报有效从31日的 00点(UTC)到 31日的 24点(UTC)
风速4节,风向多变
能见度10公里或以上
散云层高于10000英尺
短暂存在
从 31日的 00点(UTC)到 31日的 05点(UTC)
能見度: 5000
散云层高于700英尺
轻雾
成为
从 31日的 06点(UTC)到 31日的 08点(UTC)
风速10节,风向东南

TAF: UBBL 302301Z 3100/3124 VRB04KT 9999 SCT100 TX24/3111Z TN16/3102Z TEMPO 3100/3105 5000 BR SCT007 BECMG 3106/3108 14010KT

超过4000个机场的气象观测和天气预报(METAR&TAF报告)。

可查询的气象台以黄色和红色小点在地图上表示。

将鼠标移到小点上方,可查看气象台名称。

然后点击查看天气观测和预报。

如需切换地图:点击带黑十字的绿色按钮放大地图;点击带横线的绿色按钮缩小地图;或者点击绿色箭头查看邻近地区的地图。


METAR-TAF: